createdAt,value
2018-03-19T00:00:55.862Z,9.13
2018-03-19T00:03:24.215Z,12.75
2018-03-19T00:05:52.502Z,8.45
2018-03-19T00:08:21.076Z,13.52
2018-03-19T00:10:49.679Z,9.63
2018-03-19T00:13:17.995Z,8.13
2018-03-19T00:15:46.282Z,5.05
2018-03-19T00:18:14.602Z,9.27
2018-03-19T00:20:42.878Z,8.48
2018-03-19T00:23:11.371Z,8.52
2018-03-19T00:25:39.654Z,16.17
2018-03-19T00:28:08.011Z,10.15
2018-03-19T00:30:36.359Z,10.75
2018-03-19T00:33:04.882Z,11.98
2018-03-19T00:35:33.762Z,21.50
2018-03-19T00:38:02.285Z,8.85
2018-03-19T00:40:31.672Z,10.18
2018-03-19T00:43:00.814Z,12.63
2018-03-19T00:45:29.930Z,11.38
2018-03-19T00:47:59.135Z,13.05
2018-03-19T00:50:28.231Z,12.77
2018-03-19T00:52:56.656Z,13.00
2018-03-19T00:55:24.942Z,17.08
2018-03-19T00:57:53.263Z,9.75
2018-03-19T01:00:21.594Z,13.30
2018-03-19T01:02:50.684Z,12.05
2018-03-19T01:05:20.010Z,11.50
2018-03-19T01:07:48.301Z,9.10
2018-03-19T01:10:16.586Z,6.53
2018-03-19T01:12:44.906Z,10.07
2018-03-19T01:15:13.195Z,15.95
2018-03-19T01:17:41.515Z,17.77
2018-03-19T01:20:09.835Z,7.82
2018-03-19T01:22:38.154Z,9.60
2018-03-19T01:25:06.504Z,13.68
2018-03-19T01:27:34.903Z,8.90
2018-03-19T01:30:03.414Z,10.00
2018-03-19T01:32:32.027Z,11.25
2018-03-19T01:35:00.632Z,13.23
2018-03-19T01:37:29.775Z,15.30
2018-03-19T01:39:58.115Z,11.63
2018-03-19T01:42:27.171Z,13.00
2018-03-19T01:44:55.495Z,11.85
2018-03-19T01:47:23.830Z,12.50
2018-03-19T01:49:52.155Z,13.23
2018-03-19T01:55:14.202Z,12.60
2018-03-19T01:57:42.527Z,14.25
2018-03-19T02:02:45.483Z,10.18
2018-03-19T02:05:13.811Z,12.57
2018-03-19T02:07:42.882Z,11.20
2018-03-19T02:10:11.283Z,17.40
2018-03-19T02:12:39.598Z,7.68
2018-03-19T02:15:07.891Z,7.05
2018-03-19T02:17:36.398Z,10.75
2018-03-19T02:20:04.896Z,16.40
2018-03-19T02:22:33.799Z,9.82
2018-03-19T02:25:02.598Z,10.32
2018-03-19T02:27:31.106Z,10.43
2018-03-19T02:29:59.427Z,6.75
2018-03-19T02:32:27.747Z,10.85
2018-03-19T02:34:56.156Z,12.77
2018-03-19T02:37:24.455Z,8.68
2018-03-19T02:39:53.208Z,9.20
2018-03-19T02:42:22.584Z,8.15
2018-03-19T02:44:50.874Z,9.02
2018-03-19T02:47:19.192Z,6.25
2018-03-19T02:49:47.495Z,8.45
2018-03-19T02:52:15.910Z,10.52
2018-03-19T02:54:44.191Z,7.30
2018-03-19T02:57:12.505Z,7.90
2018-03-19T02:59:40.907Z,9.63
2018-03-19T03:02:09.509Z,11.80
2018-03-19T03:04:38.426Z,5.35
2018-03-19T03:07:06.960Z,11.18
2018-03-19T03:09:37.382Z,8.38
2018-03-19T03:12:07.020Z,7.75
2018-03-19T03:14:35.924Z,12.57
2018-03-19T03:17:04.548Z,8.90
2018-03-19T03:19:32.886Z,10.05
2018-03-19T03:22:01.462Z,7.68
2018-03-19T03:24:29.843Z,10.63
2018-03-19T03:26:58.658Z,11.43
2018-03-19T03:29:26.948Z,9.77
2018-03-19T03:31:55.301Z,7.65
2018-03-19T03:34:25.090Z,8.00
2018-03-19T03:36:53.515Z,8.23
2018-03-19T03:39:22.725Z,10.65
2018-03-19T03:41:51.043Z,6.25
2018-03-19T03:44:20.183Z,14.35
2018-03-19T03:46:48.478Z,8.30
2018-03-19T03:49:16.799Z,13.27
2018-03-19T03:51:45.082Z,15.30
2018-03-19T03:54:13.393Z,7.93
2018-03-19T03:56:41.707Z,8.52
2018-03-19T03:59:10.027Z,14.85
2018-03-19T04:01:39.310Z,12.82
2018-03-19T04:04:07.700Z,7.57
2018-03-19T04:06:36.108Z,10.98
2018-03-19T04:09:04.634Z,8.32
2018-03-19T04:11:34.661Z,11.40
2018-03-19T04:14:03.862Z,13.50
2018-03-19T04:16:32.446Z,8.55
2018-03-19T04:19:00.886Z,9.35
2018-03-19T04:21:29.235Z,7.35
2018-03-19T04:23:57.517Z,10.68
2018-03-19T04:26:25.838Z,16.58
2018-03-19T04:28:54.925Z,10.55
2018-03-19T04:31:23.242Z,8.55
2018-03-19T04:33:51.776Z,9.38
2018-03-19T04:36:20.963Z,8.43
2018-03-19T04:38:49.262Z,10.48
2018-03-19T04:41:17.588Z,6.25
2018-03-19T04:43:45.901Z,7.47
2018-03-19T04:46:14.983Z,11.25
2018-03-19T04:48:43.298Z,8.70
2018-03-19T04:51:11.579Z,9.48
2018-03-19T04:53:39.892Z,7.60
2018-03-19T04:56:08.175Z,18.70
2018-03-19T04:58:36.628Z,7.75
2018-03-19T05:01:06.379Z,10.05
2018-03-19T05:03:34.994Z,9.80
2018-03-19T05:06:04.016Z,8.50
2018-03-19T05:08:32.519Z,12.68
2018-03-19T05:11:01.038Z,12.45
2018-03-19T05:13:30.670Z,9.18
2018-03-19T05:15:58.995Z,19.77
2018-03-19T05:18:27.282Z,13.30
2018-03-19T05:20:55.915Z,6.75
2018-03-19T05:23:24.718Z,17.80
2018-03-19T05:25:53.862Z,15.43
2018-03-19T05:28:22.466Z,11.82
2018-03-19T05:30:50.860Z,15.48
2018-03-19T05:33:19.210Z,12.13
2018-03-19T05:35:48.264Z,14.68
2018-03-19T05:38:16.579Z,9.07
2018-03-19T05:40:44.871Z,16.00
2018-03-19T05:43:13.193Z,10.50
2018-03-19T05:45:41.473Z,14.60
2018-03-19T05:48:09.791Z,12.70
2018-03-19T05:50:38.218Z,11.75
2018-03-19T05:53:06.594Z,6.55
2018-03-19T05:55:35.216Z,12.20
2018-03-19T05:58:04.070Z,11.20
2018-03-19T06:00:33.267Z,10.50
2018-03-19T06:03:01.903Z,11.73
2018-03-19T06:05:30.229Z,6.55
2018-03-19T06:07:58.534Z,10.60
2018-03-19T06:10:26.863Z,12.15
2018-03-19T06:12:55.187Z,14.80
2018-03-19T06:15:23.475Z,7.20
2018-03-19T06:17:51.934Z,11.02
2018-03-19T06:20:20.878Z,6.45
2018-03-19T06:22:49.210Z,7.95
2018-03-19T06:25:18.322Z,10.75
2018-03-19T06:27:46.621Z,5.40
2018-03-19T06:30:14.948Z,13.85
2018-03-19T06:32:43.230Z,12.75
2018-03-19T06:35:11.719Z,7.65
2018-03-19T06:37:39.998Z,12.90
2018-03-19T06:40:08.287Z,11.38
2018-03-19T06:42:36.649Z,13.57
2018-03-19T06:45:05.022Z,11.73
2018-03-19T06:47:34.148Z,4.03
2018-03-19T06:50:03.313Z,10.10
2018-03-19T06:52:32.498Z,6.70
2018-03-19T06:55:02.233Z,8.80
2018-03-19T06:57:30.589Z,9.73
2018-03-19T06:59:58.990Z,12.45
2018-03-19T07:02:28.042Z,15.13
2018-03-19T07:04:56.334Z,12.68
2018-03-19T07:07:24.660Z,13.45
2018-03-19T07:09:53.178Z,15.10
2018-03-19T07:12:21.522Z,10.38
2018-03-19T07:14:50.603Z,11.15
2018-03-19T07:19:53.623Z,12.20
2018-03-19T07:22:21.958Z,13.88
2018-03-19T07:24:50.343Z,14.40
2018-03-19T07:27:18.671Z,12.10
2018-03-19T07:29:47.015Z,11.63
2018-03-19T07:32:15.379Z,13.25
2018-03-19T07:34:43.764Z,12.18
2018-03-19T07:37:12.790Z,12.40
2018-03-19T07:39:41.115Z,14.77
2018-03-19T07:42:09.455Z,13.50
2018-03-19T07:44:37.779Z,16.35
2018-03-19T07:47:06.138Z,15.60
2018-03-19T07:49:35.309Z,14.02
2018-03-19T07:52:03.615Z,9.27
2018-03-19T07:54:31.962Z,12.32
2018-03-19T07:57:01.052Z,7.90
2018-03-19T07:59:29.388Z,12.07
2018-03-19T08:01:58.437Z,13.30
2018-03-19T08:04:26.764Z,8.38
2018-03-19T08:06:55.049Z,9.00
2018-03-19T08:09:23.367Z,12.05
2018-03-19T08:11:51.662Z,11.65
2018-03-19T08:14:20.010Z,11.32
2018-03-19T08:16:49.187Z,20.35
2018-03-19T08:19:17.606Z,11.07
2018-03-19T08:21:45.926Z,7.90
2018-03-19T08:24:14.215Z,6.57
2018-03-19T08:26:44.151Z,4.82
2018-03-19T08:29:12.454Z,4.03
2018-03-19T08:31:40.779Z,7.00
2018-03-19T08:34:09.067Z,11.00
2018-03-19T08:36:37.455Z,9.00
2018-03-19T08:39:05.768Z,9.98
2018-03-19T08:41:35.007Z,4.55
2018-03-19T08:44:03.541Z,5.22
2018-03-19T08:46:32.087Z,5.53
2018-03-19T08:49:00.422Z,4.18
2018-03-19T08:51:29.519Z,9.00
2018-03-19T08:53:57.917Z,10.30
2018-03-19T08:56:26.208Z,4.47
2018-03-19T08:58:54.499Z,4.55
2018-03-19T09:01:22.821Z,4.80
2018-03-19T09:03:51.111Z,4.47
2018-03-19T09:06:19.413Z,6.97
2018-03-19T09:08:47.766Z,6.40
2018-03-19T09:11:16.058Z,4.35
2018-03-19T09:13:44.407Z,8.35
2018-03-19T09:16:13.483Z,6.22
2018-03-19T09:18:41.804Z,5.78
2018-03-19T09:21:10.182Z,7.82
2018-03-19T09:23:38.583Z,7.80
2018-03-19T09:26:06.858Z,3.22
2018-03-19T09:28:35.155Z,2.85
2018-03-19T09:31:03.619Z,7.32
2018-03-19T09:33:32.091Z,6.18
2018-03-19T09:36:00.398Z,5.55
2018-03-19T09:38:28.791Z,7.25
2018-03-19T09:40:57.098Z,6.85
2018-03-19T09:43:25.374Z,3.95
2018-03-19T09:45:53.712Z,7.07
2018-03-19T09:48:22.015Z,8.77
2018-03-19T09:50:50.361Z,4.18
2018-03-19T09:53:19.468Z,2.95
2018-03-19T09:55:47.743Z,6.55
2018-03-19T09:58:16.057Z,3.80
2018-03-19T10:00:44.642Z,5.97
2018-03-19T10:03:12.918Z,6.82
2018-03-19T10:05:41.209Z,1.45
2018-03-19T10:08:09.522Z,7.40
2018-03-19T10:10:37.807Z,5.65
2018-03-19T10:13:06.131Z,3.97
2018-03-19T10:15:34.411Z,3.10
2018-03-19T10:18:02.798Z,4.82
2018-03-19T10:20:31.215Z,3.10
2018-03-19T10:22:59.551Z,3.75
2018-03-19T10:25:27.834Z,5.62
2018-03-19T10:27:56.158Z,7.62
2018-03-19T10:30:24.471Z,3.08
2018-03-19T10:32:52.755Z,2.90
2018-03-19T10:35:21.099Z,3.80
2018-03-19T10:37:49.411Z,2.70
2018-03-19T10:40:18.750Z,5.35
2018-03-19T10:42:47.081Z,5.10
2018-03-19T10:45:15.378Z,2.75
2018-03-19T10:47:43.877Z,1.95
2018-03-19T10:50:12.167Z,4.95
2018-03-19T10:52:40.451Z,5.25
2018-03-19T10:55:09.538Z,3.10
2018-03-19T10:57:37.857Z,4.95
2018-03-19T11:00:06.163Z,6.03
2018-03-19T11:02:54.367Z,3.28
2018-03-19T11:05:28.310Z,2.37
2018-03-19T11:08:02.379Z,1.48
2018-03-19T11:10:30.780Z,1.52
2018-03-19T11:13:00.311Z,4.10
2018-03-19T11:15:29.130Z,3.50
2018-03-19T11:17:57.524Z,3.25
2018-03-19T11:20:25.943Z,4.43
2018-03-19T11:22:54.254Z,3.40
2018-03-19T11:25:22.537Z,1.45
2018-03-19T11:27:50.958Z,4.85
2018-03-19T11:30:19.426Z,7.12
2018-03-19T11:32:47.848Z,2.57
2018-03-19T11:35:16.131Z,3.97
2018-03-19T11:37:44.556Z,4.93
2018-03-19T11:40:12.875Z,2.37
2018-03-19T11:42:41.167Z,4.73
2018-03-19T11:45:09.487Z,3.75
2018-03-19T11:47:37.774Z,3.70
2018-03-19T11:50:06.127Z,3.70
2018-03-19T11:52:34.794Z,4.45
2018-03-19T11:55:03.931Z,2.40
2018-03-19T11:57:32.506Z,2.12
2018-03-19T12:00:01.020Z,4.43
2018-03-19T12:02:30.147Z,3.90
2018-03-19T12:04:58.462Z,4.70
2018-03-19T12:07:26.745Z,2.75
2018-03-19T12:09:55.065Z,3.10
2018-03-19T12:12:23.347Z,3.28
2018-03-19T12:14:51.677Z,4.70
2018-03-19T12:17:20.056Z,3.97
2018-03-19T12:19:48.338Z,2.50
2018-03-19T12:22:17.511Z,2.10
2018-03-19T12:24:46.558Z,2.83
2018-03-19T12:27:14.883Z,4.07
2018-03-19T12:29:43.302Z,3.80
2018-03-19T12:32:11.597Z,5.23
2018-03-19T12:34:40.011Z,2.87
2018-03-19T12:37:08.336Z,3.12
2018-03-19T12:39:36.760Z,4.90
2018-03-19T12:42:05.884Z,2.55
2018-03-19T12:44:34.971Z,3.67
2018-03-19T12:47:04.696Z,2.37
2018-03-19T12:49:33.041Z,2.47
2018-03-19T12:52:02.180Z,2.13
2018-03-19T12:54:30.741Z,3.10
2018-03-19T12:57:00.662Z,2.17
2018-03-19T12:59:28.997Z,4.67
2018-03-19T13:01:58.051Z,3.78
2018-03-19T13:04:26.479Z,4.78
2018-03-19T13:06:54.766Z,5.70
2018-03-19T13:09:23.209Z,3.50
2018-03-19T13:11:51.568Z,2.30
2018-03-19T13:14:19.995Z,4.97
2018-03-19T13:16:48.314Z,6.23
2018-03-19T13:19:16.631Z,3.50
2018-03-19T13:21:45.016Z,4.87
2018-03-19T13:24:13.293Z,3.70
2018-03-19T13:26:42.686Z,6.07
2018-03-19T13:29:11.059Z,4.22
2018-03-19T13:31:40.694Z,3.33
2018-03-19T13:34:09.467Z,3.40
2018-03-19T13:36:39.422Z,3.12
2018-03-19T13:39:08.481Z,4.03
2018-03-19T13:41:38.698Z,3.60
2018-03-19T13:44:07.920Z,7.80
2018-03-19T13:46:37.443Z,4.10
2018-03-19T13:49:07.103Z,4.40
2018-03-19T13:51:35.902Z,6.50
2018-03-19T13:54:04.596Z,7.47
2018-03-19T13:56:33.182Z,5.97
2018-03-19T13:59:01.653Z,7.50
2018-03-19T14:01:30.029Z,5.43
2018-03-19T14:03:58.395Z,5.77
2018-03-19T14:06:26.721Z,3.33
2018-03-19T14:08:55.043Z,5.03
2018-03-19T14:11:23.616Z,7.77
2018-03-19T14:13:52.715Z,7.55
2018-03-19T14:16:21.327Z,6.00
2018-03-19T14:18:49.629Z,6.62
2018-03-19T14:21:18.043Z,3.70
2018-03-19T14:23:46.366Z,4.83
2018-03-19T14:26:14.656Z,5.17
2018-03-19T14:28:43.291Z,4.77
2018-03-19T14:31:11.582Z,4.37
2018-03-19T14:33:39.862Z,3.60
2018-03-19T14:36:08.445Z,3.37
2018-03-19T14:38:37.101Z,4.30
2018-03-19T14:41:05.483Z,7.67
2018-03-19T14:43:34.670Z,6.40
2018-03-19T14:46:03.145Z,6.00
2018-03-19T14:48:31.804Z,6.20
2018-03-19T14:51:00.183Z,4.47
2018-03-19T14:53:28.847Z,10.57
2018-03-19T14:55:57.144Z,8.17
2018-03-19T14:58:25.560Z,5.20
2018-03-19T15:00:54.084Z,5.00
2018-03-19T15:03:23.580Z,5.27
2018-03-19T15:05:52.229Z,3.73
2018-03-19T15:08:20.510Z,3.77
2018-03-19T15:10:48.882Z,4.90
2018-03-19T15:13:18.666Z,5.50
2018-03-19T15:15:46.969Z,7.73
2018-03-19T15:18:15.298Z,7.70
2018-03-19T15:20:44.345Z,6.22
2018-03-19T15:23:12.662Z,6.20
2018-03-19T15:25:40.946Z,4.30
2018-03-19T15:28:09.397Z,4.32
2018-03-19T15:30:38.034Z,4.30
2018-03-19T15:33:06.779Z,6.43
2018-03-19T15:35:35.469Z,4.57
2018-03-19T15:38:03.863Z,5.13
2018-03-19T15:40:33.376Z,4.10
2018-03-19T15:43:02.176Z,9.48
2018-03-19T15:45:32.577Z,8.20
2018-03-19T15:48:01.283Z,4.40
2018-03-19T15:50:29.776Z,5.53
2018-03-19T15:52:58.480Z,5.10
2018-03-19T15:55:26.828Z,4.00
2018-03-19T15:57:55.483Z,3.63
2018-03-19T16:00:23.782Z,5.60
2018-03-19T16:02:52.103Z,4.60
2018-03-19T16:05:20.849Z,5.53
2018-03-19T16:07:49.187Z,5.97
2018-03-19T16:10:17.515Z,4.30
2018-03-19T16:12:45.836Z,5.60
2018-03-19T16:15:14.164Z,5.10
2018-03-19T16:17:42.681Z,4.40
2018-03-19T16:20:11.003Z,3.53
2018-03-19T16:22:39.330Z,6.23
2018-03-19T16:25:07.794Z,7.80
2018-03-19T16:27:36.256Z,9.57
2018-03-19T16:30:04.814Z,11.03
2018-03-19T16:32:33.409Z,12.20
2018-03-19T16:35:02.033Z,6.30
2018-03-19T16:37:31.207Z,11.17
2018-03-19T16:39:59.635Z,8.93
2018-03-19T16:42:28.379Z,10.48
2018-03-19T16:44:56.663Z,7.00
2018-03-19T16:47:24.991Z,6.60
2018-03-19T16:49:53.512Z,9.17
2018-03-19T16:52:21.979Z,7.28
2018-03-19T16:54:50.343Z,6.62
2018-03-19T16:57:18.671Z,6.53
2018-03-19T16:59:46.955Z,8.10
2018-03-19T17:02:15.286Z,5.15
2018-03-19T17:04:43.612Z,5.75
2018-03-19T17:07:11.960Z,4.20
2018-03-19T17:09:40.611Z,4.37
2018-03-19T17:12:10.301Z,20.33
2018-03-19T17:14:39.767Z,5.00
2018-03-19T17:17:08.355Z,5.77
2018-03-19T17:19:36.717Z,7.40
2018-03-19T17:22:05.492Z,6.32
2018-03-19T17:24:34.615Z,5.35
2018-03-19T17:27:03.214Z,5.70
2018-03-19T17:29:32.647Z,4.20
2018-03-19T17:32:01.056Z,6.95
2018-03-19T17:34:29.406Z,4.75
2018-03-19T17:36:57.759Z,8.90
2018-03-19T17:39:26.083Z,5.07
2018-03-19T17:41:54.388Z,6.77
2018-03-19T17:44:22.806Z,9.00
2018-03-19T17:46:52.017Z,5.50
2018-03-19T17:49:20.659Z,5.03
2018-03-19T17:51:49.019Z,5.47
2018-03-19T17:54:17.306Z,6.18
2018-03-19T17:56:45.827Z,3.90
2018-03-19T17:59:14.111Z,4.67
2018-03-19T18:01:42.390Z,3.93
2018-03-19T18:04:11.041Z,4.43
2018-03-19T18:06:39.535Z,8.40
2018-03-19T18:09:07.945Z,10.55
2018-03-19T18:11:36.557Z,5.00
2018-03-19T18:14:05.263Z,8.25
2018-03-19T18:16:33.586Z,11.25
2018-03-19T18:19:01.990Z,12.85
2018-03-19T18:21:31.495Z,8.52
2018-03-19T18:23:59.865Z,18.48
2018-03-19T18:26:28.195Z,25.90
2018-03-19T18:28:56.494Z,33.95
2018-03-19T18:31:24.947Z,24.70
2018-03-19T18:33:54.406Z,11.40
2018-03-19T18:36:23.044Z,8.95
2018-03-19T18:38:51.438Z,11.07
2018-03-19T18:41:19.961Z,8.45
2018-03-19T18:43:49.046Z,13.73
2018-03-19T18:46:17.343Z,26.45
2018-03-19T18:48:45.691Z,54.30
2018-03-19T18:51:15.042Z,28.45
2018-03-19T18:53:43.339Z,14.05
2018-03-19T18:56:11.634Z,7.32
2018-03-19T18:58:40.132Z,10.30
2018-03-19T19:01:08.491Z,7.45
2018-03-19T19:03:37.145Z,8.68
2018-03-19T19:06:05.843Z,9.55
2018-03-19T19:08:34.575Z,4.78
2018-03-19T19:11:03.086Z,5.15
2018-03-19T19:13:31.964Z,5.35
2018-03-19T19:16:00.275Z,18.40
2018-03-19T19:18:28.691Z,19.25
2018-03-19T19:20:57.014Z,31.65
2018-03-19T19:23:26.086Z,23.10
2018-03-19T19:25:54.386Z,35.65
2018-03-19T19:28:22.790Z,26.05
2018-03-19T19:30:51.429Z,29.27
2018-03-19T19:33:19.778Z,22.15
2018-03-19T19:35:48.123Z,20.00
2018-03-19T19:38:16.646Z,27.33
2018-03-19T19:40:44.972Z,16.05
2018-03-19T19:43:13.263Z,21.20
2018-03-19T19:45:41.852Z,8.73
2018-03-19T19:48:10.146Z,11.20
2018-03-19T19:50:38.583Z,8.02
2018-03-19T19:53:07.778Z,7.40
2018-03-19T19:55:36.550Z,14.80
2018-03-19T19:58:05.189Z,10.77
2018-03-19T20:00:33.855Z,11.00
2018-03-19T20:03:03.037Z,10.65
2018-03-19T20:05:32.462Z,15.23
2018-03-19T20:08:01.456Z,12.55
2018-03-19T20:10:29.815Z,10.68
2018-03-19T20:12:58.149Z,10.07
2018-03-19T20:15:26.584Z,11.68
2018-03-19T20:17:54.938Z,13.10
2018-03-19T20:20:24.266Z,12.80
2018-03-19T20:22:53.442Z,10.30
2018-03-19T20:25:23.262Z,10.98
2018-03-19T20:27:52.656Z,10.02
2018-03-19T20:30:21.869Z,10.85
2018-03-19T20:32:50.207Z,7.00
2018-03-19T20:35:18.543Z,11.18
2018-03-19T20:37:46.842Z,7.43
2018-03-19T20:40:15.128Z,6.75
2018-03-19T20:42:43.441Z,8.07
2018-03-19T20:45:11.762Z,8.93
2018-03-19T20:47:40.329Z,7.90
2018-03-19T20:50:08.852Z,9.43
2018-03-19T20:52:38.517Z,10.10
2018-03-19T20:55:06.935Z,7.47
2018-03-19T20:57:35.366Z,7.53
2018-03-19T21:00:04.298Z,6.87
2018-03-19T21:02:32.716Z,7.78
2018-03-19T21:05:01.200Z,11.77
2018-03-19T21:07:29.554Z,11.32
2018-03-19T21:09:57.878Z,8.82
2018-03-19T21:12:26.967Z,9.07
2018-03-19T21:14:55.363Z,7.05
2018-03-19T21:17:23.651Z,5.25
2018-03-19T21:19:52.044Z,13.85
2018-03-19T21:22:20.459Z,24.10
2018-03-19T21:24:48.918Z,12.27
2018-03-19T21:27:17.979Z,14.65
2018-03-19T21:29:46.276Z,13.88
2018-03-19T21:32:14.606Z,19.85
2018-03-19T21:34:43.007Z,18.65
2018-03-19T21:37:11.297Z,15.45
2018-03-19T21:39:39.583Z,18.25
2018-03-19T21:42:08.747Z,16.58
2018-03-19T21:44:37.187Z,24.55
2018-03-19T21:47:05.708Z,11.80
2018-03-19T21:49:34.096Z,17.30
2018-03-19T21:52:02.642Z,16.15
2018-03-19T21:54:31.252Z,16.77
2018-03-19T21:56:59.543Z,15.15
2018-03-19T21:59:29.082Z,11.05
2018-03-19T22:01:57.407Z,11.45
2018-03-19T22:04:25.735Z,14.45
2018-03-19T22:06:54.826Z,19.87
2018-03-19T22:09:23.151Z,18.27
2018-03-19T22:11:51.721Z,17.40
2018-03-19T22:14:20.346Z,13.55
2018-03-19T22:16:49.560Z,20.70
2018-03-19T22:19:18.171Z,12.30
2018-03-19T22:21:46.470Z,126.80
2018-03-19T22:24:14.766Z,77.07
2018-03-19T22:26:43.099Z,25.23
2018-03-19T22:29:11.396Z,21.52
2018-03-19T22:31:39.718Z,14.43
2018-03-19T22:34:08.874Z,22.77
2018-03-19T22:36:37.171Z,13.35
2018-03-19T22:39:05.720Z,16.27
2018-03-19T22:41:34.909Z,23.52
2018-03-19T22:44:03.411Z,13.95
2018-03-19T22:46:32.145Z,11.60
2018-03-19T22:49:01.378Z,9.27
2018-03-19T22:51:30.523Z,10.38
2018-03-19T22:53:58.902Z,9.48
2018-03-19T22:56:28.011Z,12.35
2018-03-19T22:58:56.347Z,10.43
2018-03-19T23:01:24.646Z,15.15
2018-03-19T23:03:53.235Z,12.02
2018-03-19T23:06:21.740Z,7.68
2018-03-19T23:08:50.386Z,5.47
2018-03-19T23:11:18.742Z,7.20
2018-03-19T23:13:47.026Z,8.23
2018-03-19T23:16:15.343Z,8.88
2018-03-19T23:18:43.636Z,7.65
2018-03-19T23:21:11.955Z,6.85
2018-03-19T23:23:40.283Z,5.87
2018-03-19T23:26:10.082Z,8.35
2018-03-19T23:28:38.379Z,8.02
2018-03-19T23:31:06.775Z,13.00
2018-03-19T23:33:35.310Z,16.80
2018-03-19T23:36:03.886Z,18.87
2018-03-19T23:38:33.144Z,18.23
2018-03-19T23:41:01.548Z,14.85
2018-03-19T23:43:31.059Z,13.43
2018-03-19T23:46:00.219Z,14.68
2018-03-19T23:48:28.514Z,9.68
2018-03-19T23:50:56.843Z,18.45
2018-03-19T23:53:25.894Z,8.95
2018-03-19T23:55:54.174Z,9.32
2018-03-19T23:58:23.269Z,15.45
